sensor_id;sensor_type;location;lat;lon;timestamp;P1;durP1;ratioP1;P2;durP2;ratioP2
50739;SDS011;36704;52.524;17.580;2022-12-07T00:02:24;10.32;;;5.15;;
50739;SDS011;36704;52.524;17.580;2022-12-07T00:05:11;11.48;;;5.45;;
50739;SDS011;36704;52.524;17.580;2022-12-07T00:07:58;11.02;;;6.20;;
50739;SDS011;36704;52.524;17.580;2022-12-07T00:10:44;12.48;;;7.22;;
50739;SDS011;36704;52.524;17.580;2022-12-07T00:13:34;7.68;;;5.13;;
50739;SDS011;36704;52.524;17.580;2022-12-07T00:16:22;9.40;;;5.72;;
50739;SDS011;36704;52.524;17.580;2022-12-07T00:19:11;9.75;;;5.43;;
50739;SDS011;36704;52.524;17.580;2022-12-07T00:21:59;9.77;;;5.43;;
50739;SDS011;36704;52.524;17.580;2022-12-07T00:24:46;8.02;;;5.03;;
50739;SDS011;36704;52.524;17.580;2022-12-07T00:27:35;9.02;;;5.75;;
50739;SDS011;36704;52.524;17.580;2022-12-07T00:30:22;9.32;;;5.32;;
50739;SDS011;36704;52.524;17.580;2022-12-07T00:33:11;9.60;;;5.25;;
50739;SDS011;36704;52.524;17.580;2022-12-07T00:36:04;10.05;;;5.43;;
50739;SDS011;36704;52.524;17.580;2022-12-07T00:38:54;8.98;;;5.07;;
50739;SDS011;36704;52.524;17.580;2022-12-07T00:44:31;9.05;;;5.57;;
50739;SDS011;36704;52.524;17.580;2022-12-07T00:47:31;8.98;;;5.30;;
50739;SDS011;36704;52.524;17.580;2022-12-07T00:50:22;11.23;;;6.13;;
50739;SDS011;36704;52.524;17.580;2022-12-07T00:53:10;11.70;;;6.22;;
50739;SDS011;36704;52.524;17.580;2022-12-07T00:56:11;16.25;;;6.22;;
50739;SDS011;36704;52.524;17.580;2022-12-07T00:59:01;15.18;;;6.38;;
50739;SDS011;36704;52.524;17.580;2022-12-07T01:01:52;14.85;;;6.70;;
50739;SDS011;36704;52.524;17.580;2022-12-07T01:04:40;14.55;;;7.75;;
50739;SDS011;36704;52.524;17.580;2022-12-07T01:07:26;14.10;;;7.05;;
50739;SDS011;36704;52.524;17.580;2022-12-07T01:10:17;17.92;;;8.10;;
50739;SDS011;36704;52.524;17.580;2022-12-07T01:13:03;16.05;;;7.78;;
50739;SDS011;36704;52.524;17.580;2022-12-07T01:15:50;17.13;;;7.88;;
50739;SDS011;36704;52.524;17.580;2022-12-07T01:18:37;18.92;;;8.77;;
50739;SDS011;36704;52.524;17.580;2022-12-07T01:21:28;17.42;;;8.85;;
50739;SDS011;36704;52.524;17.580;2022-12-07T01:24:18;17.35;;;9.55;;
50739;SDS011;36704;52.524;17.580;2022-12-07T01:27:05;18.23;;;9.27;;
50739;SDS011;36704;52.524;17.580;2022-12-07T01:29:52;17.45;;;8.75;;
50739;SDS011;36704;52.524;17.580;2022-12-07T01:32:38;17.05;;;9.48;;
50739;SDS011;36704;52.524;17.580;2022-12-07T01:35:25;21.83;;;8.30;;
50739;SDS011;36704;52.524;17.580;2022-12-07T01:38:12;22.92;;;10.38;;
50739;SDS011;36704;52.524;17.580;2022-12-07T01:41:01;25.98;;;10.85;;
50739;SDS011;36704;52.524;17.580;2022-12-07T01:47:15;18.92;;;8.95;;
50739;SDS011;36704;52.524;17.580;2022-12-07T01:50:05;23.73;;;10.50;;
50739;SDS011;36704;52.524;17.580;2022-12-07T01:52:51;20.83;;;9.95;;
50739;SDS011;36704;52.524;17.580;2022-12-07T01:55:42;20.13;;;9.23;;
50739;SDS011;36704;52.524;17.580;2022-12-07T01:58:33;20.42;;;10.02;;
50739;SDS011;36704;52.524;17.580;2022-12-07T02:01:20;21.13;;;9.73;;
50739;SDS011;36704;52.524;17.580;2022-12-07T02:04:08;20.27;;;10.93;;
50739;SDS011;36704;52.524;17.580;2022-12-07T02:06:56;22.00;;;10.23;;
50739;SDS011;36704;52.524;17.580;2022-12-07T02:09:44;22.13;;;10.52;;
50739;SDS011;36704;52.524;17.580;2022-12-07T02:12:31;20.23;;;10.88;;
50739;SDS011;36704;52.524;17.580;2022-12-07T02:15:18;22.98;;;10.63;;
50739;SDS011;36704;52.524;17.580;2022-12-07T02:18:16;22.50;;;9.70;;
50739;SDS011;36704;52.524;17.580;2022-12-07T02:21:07;22.42;;;10.65;;
50739;SDS011;36704;52.524;17.580;2022-12-07T02:35:42;22.25;;;10.88;;
50739;SDS011;36704;52.524;17.580;2022-12-07T02:38:34;23.67;;;10.85;;
50739;SDS011;36704;52.524;17.580;2022-12-07T02:41:32;17.63;;;9.77;;
50739;SDS011;36704;52.524;17.580;2022-12-07T02:44:22;20.63;;;10.75;;
50739;SDS011;36704;52.524;17.580;2022-12-07T02:47:12;17.90;;;9.57;;
50739;SDS011;36704;52.524;17.580;2022-12-07T02:50:05;16.77;;;9.18;;
50739;SDS011;36704;52.524;17.580;2022-12-07T02:52:52;16.45;;;8.75;;
50739;SDS011;36704;52.524;17.580;2022-12-07T02:55:39;16.98;;;9.23;;
50739;SDS011;36704;52.524;17.580;2022-12-07T03:01:37;18.17;;;9.23;;
50739;SDS011;36704;52.524;17.580;2022-12-07T03:07:26;21.77;;;9.30;;
50739;SDS011;36704;52.524;17.580;2022-12-07T03:10:27;17.40;;;9.13;;
50739;SDS011;36704;52.524;17.580;2022-12-07T03:16:25;23.60;;;11.00;;
50739;SDS011;36704;52.524;17.580;2022-12-07T03:19:15;23.38;;;9.70;;
50739;SDS011;36704;52.524;17.580;2022-12-07T03:22:10;20.10;;;10.15;;
50739;SDS011;36704;52.524;17.580;2022-12-07T03:24:58;21.45;;;9.75;;
50739;SDS011;36704;52.524;17.580;2022-12-07T03:30:46;21.45;;;10.23;;
50739;SDS011;36704;52.524;17.580;2022-12-07T03:33:48;19.50;;;9.35;;
50739;SDS011;36704;52.524;17.580;2022-12-07T03:37:22;22.60;;;9.57;;
50739;SDS011;36704;52.524;17.580;2022-12-07T03:40:02;19.48;;;9.75;;
50739;SDS011;36704;52.524;17.580;2022-12-07T03:43:12;21.17;;;9.80;;
50739;SDS011;36704;52.524;17.580;2022-12-07T03:52:19;17.88;;;9.63;;
50739;SDS011;36704;52.524;17.580;2022-12-07T03:58:17;21.77;;;9.77;;
50739;SDS011;36704;52.524;17.580;2022-12-07T04:01:06;21.02;;;9.98;;
50739;SDS011;36704;52.524;17.580;2022-12-07T04:03:53;16.67;;;9.13;;
50739;SDS011;36704;52.524;17.580;2022-12-07T04:06:40;19.65;;;9.00;;
50739;SDS011;36704;52.524;17.580;2022-12-07T04:09:31;19.17;;;9.18;;
50739;SDS011;36704;52.524;17.580;2022-12-07T04:12:19;16.90;;;9.05;;
50739;SDS011;36704;52.524;17.580;2022-12-07T04:15:09;16.90;;;8.90;;
50739;SDS011;36704;52.524;17.580;2022-12-07T04:17:59;16.00;;;7.70;;
50739;SDS011;36704;52.524;17.580;2022-12-07T04:20:46;12.40;;;6.90;;
50739;SDS011;36704;52.524;17.580;2022-12-07T04:23:35;15.32;;;7.63;;
50739;SDS011;36704;52.524;17.580;2022-12-07T04:26:24;19.40;;;9.77;;
50739;SDS011;36704;52.524;17.580;2022-12-07T04:29:13;14.65;;;7.53;;
50739;SDS011;36704;52.524;17.580;2022-12-07T04:32:01;30.65;;;13.57;;
50739;SDS011;36704;52.524;17.580;2022-12-07T04:34:48;22.13;;;11.20;;
50739;SDS011;36704;52.524;17.580;2022-12-07T04:37:41;22.27;;;10.30;;
50739;SDS011;36704;52.524;17.580;2022-12-07T04:40:30;25.65;;;10.98;;
50739;SDS011;36704;52.524;17.580;2022-12-07T04:43:17;21.52;;;9.98;;
50739;SDS011;36704;52.524;17.580;2022-12-07T04:46:05;14.15;;;7.55;;
50739;SDS011;36704;52.524;17.580;2022-12-07T04:48:53;16.30;;;8.23;;
50739;SDS011;36704;52.524;17.580;2022-12-07T04:51:42;14.98;;;7.78;;
50739;SDS011;36704;52.524;17.580;2022-12-07T04:54:33;15.57;;;7.75;;
50739;SDS011;36704;52.524;17.580;2022-12-07T04:57:22;13.60;;;7.28;;
50739;SDS011;36704;52.524;17.580;2022-12-07T05:00:09;20.17;;;9.52;;
50739;SDS011;36704;52.524;17.580;2022-12-07T05:02:59;13.73;;;7.68;;
50739;SDS011;36704;52.524;17.580;2022-12-07T05:05:46;18.02;;;8.80;;
50739;SDS011;36704;52.524;17.580;2022-12-07T05:08:33;14.50;;;7.63;;
50739;SDS011;36704;52.524;17.580;2022-12-07T05:11:24;16.23;;;8.15;;
50739;SDS011;36704;52.524;17.580;2022-12-07T05:14:26;11.85;;;6.93;;
50739;SDS011;36704;52.524;17.580;2022-12-07T05:17:13;13.40;;;5.88;;
50739;SDS011;36704;52.524;17.580;2022-12-07T05:20:03;17.98;;;8.52;;
50739;SDS011;36704;52.524;17.580;2022-12-07T05:22:51;30.58;;;13.02;;
50739;SDS011;36704;52.524;17.580;2022-12-07T05:25:38;15.93;;;8.05;;
50739;SDS011;36704;52.524;17.580;2022-12-07T05:28:31;22.63;;;10.60;;
50739;SDS011;36704;52.524;17.580;2022-12-07T05:31:22;26.02;;;11.75;;
50739;SDS011;36704;52.524;17.580;2022-12-07T05:34:10;27.75;;;12.52;;
50739;SDS011;36704;52.524;17.580;2022-12-07T05:36:57;23.23;;;10.63;;
50739;SDS011;36704;52.524;17.580;2022-12-07T05:39:49;31.15;;;13.10;;
50739;SDS011;36704;52.524;17.580;2022-12-07T05:42:35;26.63;;;12.77;;
50739;SDS011;36704;52.524;17.580;2022-12-07T05:45:23;27.70;;;11.57;;
50739;SDS011;36704;52.524;17.580;2022-12-07T05:48:10;17.15;;;8.52;;
50739;SDS011;36704;52.524;17.580;2022-12-07T05:50:57;17.17;;;9.25;;
50739;SDS011;36704;52.524;17.580;2022-12-07T05:53:44;16.98;;;8.57;;
50739;SDS011;36704;52.524;17.580;2022-12-07T05:56:32;16.58;;;8.77;;
50739;SDS011;36704;52.524;17.580;2022-12-07T05:59:19;17.13;;;8.60;;
50739;SDS011;36704;52.524;17.580;2022-12-07T06:02:10;18.45;;;9.48;;
50739;SDS011;36704;52.524;17.580;2022-12-07T06:05:02;21.83;;;10.65;;
50739;SDS011;36704;52.524;17.580;2022-12-07T06:08:01;22.77;;;11.43;;
50739;SDS011;36704;52.524;17.580;2022-12-07T06:10:51;21.15;;;11.38;;
50739;SDS011;36704;52.524;17.580;2022-12-07T06:13:58;22.17;;;10.75;;
50739;SDS011;36704;52.524;17.580;2022-12-07T06:16:44;23.75;;;12.68;;
50739;SDS011;36704;52.524;17.580;2022-12-07T06:19:32;16.25;;;9.10;;
50739;SDS011;36704;52.524;17.580;2022-12-07T06:22:22;13.20;;;7.80;;
50739;SDS011;36704;52.524;17.580;2022-12-07T06:25:12;18.80;;;10.50;;
50739;SDS011;36704;52.524;17.580;2022-12-07T06:27:59;15.07;;;9.00;;
50739;SDS011;36704;52.524;17.580;2022-12-07T06:30:46;16.80;;;10.25;;
50739;SDS011;36704;52.524;17.580;2022-12-07T06:33:32;19.90;;;11.57;;
50739;SDS011;36704;52.524;17.580;2022-12-07T06:36:20;20.45;;;13.73;;
50739;SDS011;36704;52.524;17.580;2022-12-07T06:39:12;28.70;;;16.05;;
50739;SDS011;36704;52.524;17.580;2022-12-07T06:42:01;22.70;;;13.65;;
50739;SDS011;36704;52.524;17.580;2022-12-07T06:44:47;19.83;;;11.00;;
50739;SDS011;36704;52.524;17.580;2022-12-07T06:47:37;27.02;;;16.42;;
50739;SDS011;36704;52.524;17.580;2022-12-07T06:50:30;17.38;;;10.90;;
50739;SDS011;36704;52.524;17.580;2022-12-07T06:53:20;24.10;;;15.68;;
50739;SDS011;36704;52.524;17.580;2022-12-07T06:56:06;20.98;;;13.18;;
50739;SDS011;36704;52.524;17.580;2022-12-07T06:58:54;22.25;;;12.57;;
50739;SDS011;36704;52.524;17.580;2022-12-07T07:01:41;20.40;;;11.20;;
50739;SDS011;36704;52.524;17.580;2022-12-07T07:04:28;19.50;;;11.10;;
50739;SDS011;36704;52.524;17.580;2022-12-07T07:07:15;18.08;;;11.07;;
50739;SDS011;36704;52.524;17.580;2022-12-07T07:10:01;21.70;;;13.57;;
50739;SDS011;36704;52.524;17.580;2022-12-07T07:12:49;25.48;;;14.88;;
50739;SDS011;36704;52.524;17.580;2022-12-07T07:15:42;26.73;;;15.75;;
50739;SDS011;36704;52.524;17.580;2022-12-07T07:18:28;23.20;;;13.13;;
50739;SDS011;36704;52.524;17.580;2022-12-07T07:21:16;27.98;;;12.63;;
50739;SDS011;36704;52.524;17.580;2022-12-07T07:24:03;37.47;;;16.48;;
50739;SDS011;36704;52.524;17.580;2022-12-07T07:26:52;28.73;;;15.20;;
50739;SDS011;36704;52.524;17.580;2022-12-07T07:29:39;25.58;;;14.23;;
50739;SDS011;36704;52.524;17.580;2022-12-07T07:32:26;26.38;;;14.25;;
50739;SDS011;36704;52.524;17.580;2022-12-07T07:35:13;28.63;;;16.40;;
50739;SDS011;36704;52.524;17.580;2022-12-07T07:38:02;20.98;;;11.73;;
50739;SDS011;36704;52.524;17.580;2022-12-07T07:40:49;20.75;;;11.95;;
50739;SDS011;36704;52.524;17.580;2022-12-07T07:43:36;21.05;;;11.05;;
50739;SDS011;36704;52.524;17.580;2022-12-07T07:46:22;20.00;;;11.10;;
50739;SDS011;36704;52.524;17.580;2022-12-07T07:49:09;17.67;;;10.57;;
50739;SDS011;36704;52.524;17.580;2022-12-07T07:51:56;17.23;;;9.65;;
50739;SDS011;36704;52.524;17.580;2022-12-07T07:54:46;21.40;;;11.95;;
50739;SDS011;36704;52.524;17.580;2022-12-07T07:57:33;21.75;;;10.88;;
50739;SDS011;36704;52.524;17.580;2022-12-07T08:00:19;34.95;;;17.98;;
50739;SDS011;36704;52.524;17.580;2022-12-07T08:03:06;21.40;;;11.07;;
50739;SDS011;36704;52.524;17.580;2022-12-07T08:05:53;21.00;;;11.70;;
50739;SDS011;36704;52.524;17.580;2022-12-07T08:08:40;22.08;;;11.73;;
50739;SDS011;36704;52.524;17.580;2022-12-07T08:11:27;19.65;;;10.48;;
50739;SDS011;36704;52.524;17.580;2022-12-07T08:14:13;18.65;;;9.80;;
50739;SDS011;36704;52.524;17.580;2022-12-07T08:17:00;21.33;;;11.43;;
50739;SDS011;36704;52.524;17.580;2022-12-07T08:19:50;18.00;;;10.05;;
50739;SDS011;36704;52.524;17.580;2022-12-07T08:22:37;17.55;;;9.35;;
50739;SDS011;36704;52.524;17.580;2022-12-07T08:25:23;16.40;;;9.65;;
50739;SDS011;36704;52.524;17.580;2022-12-07T08:28:10;18.35;;;10.10;;
50739;SDS011;36704;52.524;17.580;2022-12-07T08:31:03;19.48;;;10.38;;
50739;SDS011;36704;52.524;17.580;2022-12-07T08:33:51;15.02;;;9.02;;
50739;SDS011;36704;52.524;17.580;2022-12-07T08:36:37;15.27;;;9.02;;
50739;SDS011;36704;52.524;17.580;2022-12-07T08:39:24;13.82;;;7.78;;
50739;SDS011;36704;52.524;17.580;2022-12-07T08:42:18;16.05;;;9.35;;
50739;SDS011;36704;52.524;17.580;2022-12-07T08:50:41;19.00;;;9.48;;
50739;SDS011;36704;52.524;17.580;2022-12-07T08:53:34;16.20;;;9.93;;
50739;SDS011;36704;52.524;17.580;2022-12-07T08:56:21;14.85;;;8.77;;
50739;SDS011;36704;52.524;17.580;2022-12-07T08:59:08;22.15;;;13.02;;
50739;SDS011;36704;52.524;17.580;2022-12-07T09:01:55;31.73;;;18.75;;
50739;SDS011;36704;52.524;17.580;2022-12-07T09:04:43;140.77;;;58.30;;
50739;SDS011;36704;52.524;17.580;2022-12-07T09:07:30;179.45;;;64.00;;
50739;SDS011;36704;52.524;17.580;2022-12-07T09:10:20;40.35;;;21.65;;
50739;SDS011;36704;52.524;17.580;2022-12-07T09:13:06;24.65;;;16.95;;
50739;SDS011;36704;52.524;17.580;2022-12-07T09:15:53;16.63;;;10.70;;
50739;SDS011;36704;52.524;17.580;2022-12-07T09:18:40;25.20;;;17.17;;
50739;SDS011;36704;52.524;17.580;2022-12-07T09:21:27;93.57;;;33.42;;
50739;SDS011;36704;52.524;17.580;2022-12-07T09:24:17;139.18;;;39.30;;
50739;SDS011;36704;52.524;17.580;2022-12-07T09:27:06;85.18;;;26.17;;
50739;SDS011;36704;52.524;17.580;2022-12-07T09:29:53;58.63;;;20.08;;
50739;SDS011;36704;52.524;17.580;2022-12-07T09:32:40;54.90;;;19.60;;
50739;SDS011;36704;52.524;17.580;2022-12-07T09:35:30;59.25;;;21.15;;
50739;SDS011;36704;52.524;17.580;2022-12-07T09:38:17;93.22;;;28.73;;
50739;SDS011;36704;52.524;17.580;2022-12-07T09:41:07;35.55;;;13.10;;
50739;SDS011;36704;52.524;17.580;2022-12-07T09:43:56;41.20;;;13.15;;
50739;SDS011;36704;52.524;17.580;2022-12-07T09:46:59;22.92;;;10.48;;
50739;SDS011;36704;52.524;17.580;2022-12-07T09:49:45;119.97;;;31.98;;
50739;SDS011;36704;52.524;17.580;2022-12-07T09:52:31;42.85;;;15.27;;
50739;SDS011;36704;52.524;17.580;2022-12-07T09:55:26;50.33;;;15.68;;
50739;SDS011;36704;52.524;17.580;2022-12-07T09:58:21;31.65;;;13.18;;
50739;SDS011;36704;52.524;17.580;2022-12-07T10:01:16;97.53;;;26.13;;
50739;SDS011;36704;52.524;17.580;2022-12-07T10:07:01;50.78;;;18.27;;
50739;SDS011;36704;52.524;17.580;2022-12-07T10:09:51;168.13;;;42.83;;
50739;SDS011;36704;52.524;17.580;2022-12-07T10:18:56;68.47;;;21.83;;
50739;SDS011;36704;52.524;17.580;2022-12-07T10:21:42;56.45;;;18.38;;
50739;SDS011;36704;52.524;17.580;2022-12-07T10:24:46;90.30;;;26.38;;
50739;SDS011;36704;52.524;17.580;2022-12-07T10:27:33;80.05;;;23.13;;
50739;SDS011;36704;52.524;17.580;2022-12-07T10:30:20;87.35;;;24.80;;
50739;SDS011;36704;52.524;17.580;2022-12-07T10:33:15;91.28;;;28.02;;
50739;SDS011;36704;52.524;17.580;2022-12-07T10:36:19;76.47;;;28.42;;
50739;SDS011;36704;52.524;17.580;2022-12-07T10:39:11;93.72;;;30.55;;
50739;SDS011;36704;52.524;17.580;2022-12-07T10:42:02;85.85;;;29.35;;
50739;SDS011;36704;52.524;17.580;2022-12-07T10:44:50;68.63;;;22.30;;
50739;SDS011;36704;52.524;17.580;2022-12-07T10:59:40;38.85;;;17.85;;
50739;SDS011;36704;52.524;17.580;2022-12-07T11:12:06;23.85;;;12.15;;
50739;SDS011;36704;52.524;17.580;2022-12-07T11:15:01;23.33;;;12.20;;
50739;SDS011;36704;52.524;17.580;2022-12-07T11:33:27;26.73;;;13.98;;
50739;SDS011;36704;52.524;17.580;2022-12-07T11:39:39;31.65;;;15.82;;
50739;SDS011;36704;52.524;17.580;2022-12-07T11:45:31;24.35;;;13.70;;
50739;SDS011;36704;52.524;17.580;2022-12-07T11:51:14;35.97;;;19.45;;
50739;SDS011;36704;52.524;17.580;2022-12-07T11:54:09;22.58;;;12.68;;
50739;SDS011;36704;52.524;17.580;2022-12-07T11:57:04;17.52;;;10.90;;
50739;SDS011;36704;52.524;17.580;2022-12-07T12:00:04;19.80;;;11.63;;
50739;SDS011;36704;52.524;17.580;2022-12-07T12:03:03;27.95;;;14.85;;
50739;SDS011;36704;52.524;17.580;2022-12-07T12:05:56;29.40;;;14.38;;
50739;SDS011;36704;52.524;17.580;2022-12-07T12:08:47;26.30;;;13.95;;
50739;SDS011;36704;52.524;17.580;2022-12-07T12:12:02;32.50;;;16.85;;
50739;SDS011;36704;52.524;17.580;2022-12-07T12:21:40;25.33;;;14.43;;
50739;SDS011;36704;52.524;17.580;2022-12-07T12:24:30;22.60;;;13.60;;
50739;SDS011;36704;52.524;17.580;2022-12-07T12:27:29;22.90;;;12.52;;
50739;SDS011;36704;52.524;17.580;2022-12-07T12:33:44;23.10;;;12.75;;
50739;SDS011;36704;52.524;17.580;2022-12-07T12:39:28;19.88;;;12.00;;
50739;SDS011;36704;52.524;17.580;2022-12-07T12:42:17;18.90;;;11.32;;
50739;SDS011;36704;52.524;17.580;2022-12-07T12:45:16;20.33;;;11.50;;
50739;SDS011;36704;52.524;17.580;2022-12-07T12:48:28;23.48;;;13.80;;
50739;SDS011;36704;52.524;17.580;2022-12-07T13:00:19;26.63;;;15.13;;
50739;SDS011;36704;52.524;17.580;2022-12-07T13:03:16;43.75;;;20.52;;
50739;SDS011;36704;52.524;17.580;2022-12-07T13:12:34;51.40;;;25.98;;
50739;SDS011;36704;52.524;17.580;2022-12-07T13:15:35;32.92;;;17.63;;
50739;SDS011;36704;52.524;17.580;2022-12-07T13:25:28;26.48;;;14.70;;
50739;SDS011;36704;52.524;17.580;2022-12-07T13:28:18;30.20;;;14.93;;
50739;SDS011;36704;52.524;17.580;2022-12-07T13:31:23;24.75;;;13.27;;
50739;SDS011;36704;52.524;17.580;2022-12-07T13:37:27;35.35;;;17.65;;
50739;SDS011;36704;52.524;17.580;2022-12-07T13:40:23;25.20;;;14.10;;
50739;SDS011;36704;52.524;17.580;2022-12-07T13:43:14;25.40;;;14.05;;
50739;SDS011;36704;52.524;17.580;2022-12-07T13:46:01;27.48;;;15.38;;
50739;SDS011;36704;52.524;17.580;2022-12-07T13:48:49;25.90;;;14.07;;
50739;SDS011;36704;52.524;17.580;2022-12-07T13:51:36;31.40;;;16.13;;
50739;SDS011;36704;52.524;17.580;2022-12-07T13:54:23;24.08;;;13.50;;
50739;SDS011;36704;52.524;17.580;2022-12-07T13:57:10;28.17;;;13.10;;
50739;SDS011;36704;52.524;17.580;2022-12-07T13:59:57;30.33;;;15.73;;
50739;SDS011;36704;52.524;17.580;2022-12-07T14:03:03;24.20;;;13.52;;
50739;SDS011;36704;52.524;17.580;2022-12-07T14:06:46;18.17;;;11.43;;
50739;SDS011;36704;52.524;17.580;2022-12-07T14:13:37;22.15;;;12.88;;
50739;SDS011;36704;52.524;17.580;2022-12-07T14:16:28;30.27;;;17.13;;
50739;SDS011;36704;52.524;17.580;2022-12-07T14:19:38;24.48;;;12.30;;
50739;SDS011;36704;52.524;17.580;2022-12-07T14:22:35;19.38;;;10.60;;
50739;SDS011;36704;52.524;17.580;2022-12-07T14:25:23;23.33;;;12.18;;
50739;SDS011;36704;52.524;17.580;2022-12-07T14:28:26;20.88;;;10.07;;
50739;SDS011;36704;52.524;17.580;2022-12-07T14:31:16;18.85;;;11.02;;
50739;SDS011;36704;52.524;17.580;2022-12-07T14:34:19;22.10;;;11.00;;
50739;SDS011;36704;52.524;17.580;2022-12-07T14:37:12;30.13;;;15.48;;
50739;SDS011;36704;52.524;17.580;2022-12-07T14:39:58;18.75;;;10.25;;
50739;SDS011;36704;52.524;17.580;2022-12-07T14:42:46;18.27;;;9.77;;
50739;SDS011;36704;52.524;17.580;2022-12-07T14:45:36;19.73;;;10.43;;
50739;SDS011;36704;52.524;17.580;2022-12-07T14:48:23;16.83;;;9.25;;
50739;SDS011;36704;52.524;17.580;2022-12-07T14:51:30;15.52;;;9.35;;
50739;SDS011;36704;52.524;17.580;2022-12-07T14:54:37;18.58;;;10.50;;
50739;SDS011;36704;52.524;17.580;2022-12-07T14:57:23;13.57;;;8.63;;
50739;SDS011;36704;52.524;17.580;2022-12-07T15:00:15;12.30;;;7.57;;
50739;SDS011;36704;52.524;17.580;2022-12-07T15:03:03;11.15;;;7.80;;
50739;SDS011;36704;52.524;17.580;2022-12-07T15:05:50;12.55;;;7.35;;
50739;SDS011;36704;52.524;17.580;2022-12-07T15:08:36;12.80;;;6.80;;
50739;SDS011;36704;52.524;17.580;2022-12-07T15:11:23;23.33;;;10.88;;
50739;SDS011;36704;52.524;17.580;2022-12-07T15:14:10;39.47;;;17.02;;
50739;SDS011;36704;52.524;17.580;2022-12-07T15:16:58;21.15;;;12.20;;
50739;SDS011;36704;52.524;17.580;2022-12-07T15:24:02;14.57;;;7.90;;
50739;SDS011;36704;52.524;17.580;2022-12-07T15:27:26;15.23;;;8.90;;
50739;SDS011;36704;52.524;17.580;2022-12-07T15:31:49;18.90;;;10.95;;
50739;SDS011;36704;52.524;17.580;2022-12-07T15:35:18;17.47;;;10.13;;
50739;SDS011;36704;52.524;17.580;2022-12-07T15:38:17;18.23;;;9.88;;
50739;SDS011;36704;52.524;17.580;2022-12-07T15:42:11;18.23;;;10.40;;
50739;SDS011;36704;52.524;17.580;2022-12-07T15:45:10;14.93;;;8.65;;
50739;SDS011;36704;52.524;17.580;2022-12-07T15:48:29;14.88;;;8.32;;
50739;SDS011;36704;52.524;17.580;2022-12-07T15:52:26;21.08;;;11.02;;
50739;SDS011;36704;52.524;17.580;2022-12-07T15:56:08;35.58;;;14.80;;
50739;SDS011;36704;52.524;17.580;2022-12-07T15:59:09;21.40;;;10.18;;
50739;SDS011;36704;52.524;17.580;2022-12-07T16:02:20;13.85;;;7.68;;
50739;SDS011;36704;52.524;17.580;2022-12-07T16:09:25;14.20;;;7.88;;
50739;SDS011;36704;52.524;17.580;2022-12-07T16:12:42;11.35;;;6.68;;
50739;SDS011;36704;52.524;17.580;2022-12-07T16:15:40;14.00;;;6.80;;
50739;SDS011;36704;52.524;17.580;2022-12-07T16:18:59;12.00;;;7.43;;
50739;SDS011;36704;52.524;17.580;2022-12-07T16:21:52;12.60;;;7.32;;
50739;SDS011;36704;52.524;17.580;2022-12-07T16:25:05;20.65;;;10.73;;
50739;SDS011;36704;52.524;17.580;2022-12-07T16:28:17;18.40;;;8.68;;
50739;SDS011;36704;52.524;17.580;2022-12-07T16:31:47;17.42;;;8.50;;
50739;SDS011;36704;52.524;17.580;2022-12-07T16:35:13;16.98;;;8.05;;
50739;SDS011;36704;52.524;17.580;2022-12-07T16:41:37;15.43;;;9.43;;
50739;SDS011;36704;52.524;17.580;2022-12-07T16:48:38;15.15;;;8.85;;
50739;SDS011;36704;52.524;17.580;2022-12-07T16:51:34;16.23;;;8.88;;
50739;SDS011;36704;52.524;17.580;2022-12-07T16:54:35;21.05;;;11.30;;
50739;SDS011;36704;52.524;17.580;2022-12-07T17:01:58;27.50;;;11.55;;
50739;SDS011;36704;52.524;17.580;2022-12-07T17:05:44;20.75;;;10.02;;
50739;SDS011;36704;52.524;17.580;2022-12-07T17:08:42;23.13;;;11.60;;
50739;SDS011;36704;52.524;17.580;2022-12-07T17:11:36;28.80;;;12.00;;
50739;SDS011;36704;52.524;17.580;2022-12-07T17:14:27;17.83;;;10.20;;
50739;SDS011;36704;52.524;17.580;2022-12-07T17:18:23;20.35;;;10.00;;
50739;SDS011;36704;52.524;17.580;2022-12-07T17:21:40;28.50;;;12.73;;
50739;SDS011;36704;52.524;17.580;2022-12-07T17:24:40;25.77;;;11.77;;
50739;SDS011;36704;52.524;17.580;2022-12-07T17:27:41;73.05;;;30.40;;
50739;SDS011;36704;52.524;17.580;2022-12-07T17:30:59;34.63;;;18.00;;
50739;SDS011;36704;52.524;17.580;2022-12-07T17:34:12;17.45;;;9.90;;
50739;SDS011;36704;52.524;17.580;2022-12-07T17:40:52;11.15;;;6.57;;
50739;SDS011;36704;52.524;17.580;2022-12-07T17:43:49;11.40;;;6.50;;
50739;SDS011;36704;52.524;17.580;2022-12-07T17:47:36;13.77;;;6.65;;
50739;SDS011;36704;52.524;17.580;2022-12-07T17:50:45;21.23;;;9.68;;
50739;SDS011;36704;52.524;17.580;2022-12-07T17:54:26;12.70;;;5.60;;
50739;SDS011;36704;52.524;17.580;2022-12-07T18:02:02;14.02;;;7.82;;
50739;SDS011;36704;52.524;17.580;2022-12-07T18:05:59;15.35;;;8.32;;
50739;SDS011;36704;52.524;17.580;2022-12-07T18:09:59;14.80;;;8.57;;
50739;SDS011;36704;52.524;17.580;2022-12-07T18:12:46;13.95;;;7.75;;
50739;SDS011;36704;52.524;17.580;2022-12-07T18:15:37;15.07;;;8.50;;
50739;SDS011;36704;52.524;17.580;2022-12-07T18:18:24;14.82;;;8.13;;
50739;SDS011;36704;52.524;17.580;2022-12-07T18:21:11;14.50;;;7.47;;
50739;SDS011;36704;52.524;17.580;2022-12-07T18:24:02;14.23;;;8.63;;
50739;SDS011;36704;52.524;17.580;2022-12-07T18:26:53;18.05;;;9.98;;
50739;SDS011;36704;52.524;17.580;2022-12-07T18:29:40;18.40;;;9.77;;
50739;SDS011;36704;52.524;17.580;2022-12-07T18:32:27;16.92;;;9.52;;
50739;SDS011;36704;52.524;17.580;2022-12-07T18:35:15;19.77;;;10.13;;
50739;SDS011;36704;52.524;17.580;2022-12-07T18:38:02;17.70;;;9.05;;
50739;SDS011;36704;52.524;17.580;2022-12-07T18:40:49;14.07;;;7.78;;
50739;SDS011;36704;52.524;17.580;2022-12-07T18:43:35;18.38;;;8.50;;
50739;SDS011;36704;52.524;17.580;2022-12-07T18:46:22;16.33;;;8.50;;
50739;SDS011;36704;52.524;17.580;2022-12-07T18:49:18;17.67;;;9.18;;
50739;SDS011;36704;52.524;17.580;2022-12-07T18:52:07;15.32;;;7.55;;
50739;SDS011;36704;52.524;17.580;2022-12-07T19:57:17;22.17;;;12.25;;
50739;SDS011;36704;52.524;17.580;2022-12-07T20:01:12;23.17;;;10.88;;
50739;SDS011;36704;52.524;17.580;2022-12-07T20:14:36;17.55;;;9.57;;
50739;SDS011;36704;52.524;17.580;2022-12-07T20:29:24;18.80;;;8.75;;
50739;SDS011;36704;52.524;17.580;2022-12-07T20:32:57;33.22;;;11.55;;
50739;SDS011;36704;52.524;17.580;2022-12-07T20:40:49;23.92;;;9.90;;
50739;SDS011;36704;52.524;17.580;2022-12-07T20:44:45;26.58;;;11.32;;
50739;SDS011;36704;52.524;17.580;2022-12-07T20:48:41;21.35;;;11.60;;
50739;SDS011;36704;52.524;17.580;2022-12-07T20:51:38;23.45;;;11.75;;
50739;SDS011;36704;52.524;17.580;2022-12-07T20:54:32;30.90;;;12.13;;
50739;SDS011;36704;52.524;17.580;2022-12-07T20:58:22;24.02;;;11.73;;
50739;SDS011;36704;52.524;17.580;2022-12-07T21:02:02;24.17;;;10.55;;
50739;SDS011;36704;52.524;17.580;2022-12-07T21:05:46;22.90;;;11.60;;
50739;SDS011;36704;52.524;17.580;2022-12-07T21:09:03;23.38;;;11.68;;
50739;SDS011;36704;52.524;17.580;2022-12-07T21:12:06;17.80;;;9.00;;
50739;SDS011;36704;52.524;17.580;2022-12-07T21:18:06;17.45;;;8.20;;
50739;SDS011;36704;52.524;17.580;2022-12-07T21:22:10;22.70;;;8.52;;